Creek Data

    Home     View Charts     View Raw Data     Messages

ID Distance Battery Voltage Battery Current Internal Temp Internal Humidity External Temp Solar Input rssi snr Time Stamp Record
66453 14.8 3.87 0 49 51 49 5.1 -74 7 02/16/2026 02:45 PM 49269
66452 14.8 3.88 0 49 51 48 5.1 -80 7 02/16/2026 02:30 PM 49268
66451 14.8 3.88 0 48 51 48 5.1 -78 8 02/16/2026 02:15 PM 49267
66450 14.8 4.02 37 48 51 48 4.5 -78 7 02/16/2026 02:00 PM 49266
66449 14.8 3.94 13 48 51 48 4.5 -71 7 02/16/2026 01:45 PM 49265
66448 14.8 3.92 0 48 51 48 4.5 -76 8 02/16/2026 01:30 PM 49264
66447 14.8 3.96 6 48 51 48 4.5 -77 7 02/16/2026 01:15 PM 49263
66446 14.8 3.92 0 48 51 48 4.5 -75 7 02/16/2026 01:00 PM 49262
66445 14.8 3.97 9 48 51 49 4.5 -74 8 02/16/2026 12:45 PM 49261
66444 14.8 3.98 11 48 51 48 4.5 -74 8 02/16/2026 12:30 PM 49260
66443 14.9 4.02 17 49 51 49 4.5 -74 8 02/16/2026 12:15 PM 49259
66442 14.9 3.99 15 49 51 49 4.5 -74 8 02/16/2026 12:00 PM 49258
66441 14.9 3.91 0 49 51 49 4.5 -74 8 02/16/2026 11:45 AM 49257
66440 14.9 3.87 -8 49 51 49 4.5 -73 8 02/16/2026 11:15 AM 49255
66439 14.9 3.96 10 49 51 49 4.5 -73 7 02/16/2026 11:00 AM 49254
66438 14.9 3.96 10 49 51 50 4.5 -74 8 02/16/2026 10:45 AM 49253
66437 14.9 3.85 14 49 51 50 4.5 -73 8 02/16/2026 10:30 AM 49252
66436 15.0 3.93 6 49 51 49 4.5 -74 5 02/16/2026 10:15 AM 49251
66435 14.9 3.77 0 49 51 50 4.6 -73 7 02/16/2026 10:00 AM 49250
66434 14.9 3.91 0 49 51 49 4.5 -74 7 02/16/2026 09:45 AM 49249
66433 14.9 3.88 0 49 51 49 4.6 -74 8 02/16/2026 09:30 AM 49248
66432 14.9 3.76 0 49 51 49 4.5 -72 8 02/16/2026 09:15 AM 49247
66431 14.9 3.75 0 49 51 49 4.5 -72 8 02/16/2026 09:00 AM 49246
66430 14.9 3.73 -5 49 51 49 4.5 -73 7 02/16/2026 08:45 AM 49245
66429 14.9 3.88 -5 49 51 49 4.5 -73 8 02/16/2026 08:30 AM 49244